EGJJ Airport Information

Runway Information
Runway 09 Length 5597 ft width 151 ft
Elevation 270 ft Threshold 200 ft Heading 83
Runway 27 Length 5597 ft Width 151 ft
Elevation 271 ft Threshold 299 ft Heading 263
Airport Frequencies
Type APP Name APP Frequency 120.3 MHZ
Type ATIS Name INFO Frequency 112.2 MHZ
Type GND Name GND Frequency 121.9 MHZ
Type RDR Name RDR Frequency 118.55 MHZ
Type TWR Name TWR Frequency 119.45 MHZ
Airport Navaids
Type VOR-DME Name Jersey Frequency 112200 KHZ
Airport Weather Information & NOTAM
ADDS - METARS form results

(1434 UTC 23 May 2022)
Data provider http://aviationweather.gov/metar/data/
 
METAR text: EGJJ 231420Z 28013KT 240V310 9999 FEW009 15/12 Q1005
Conditions at: EGJJ (JERSEY AIRPORT , JE) observed 1420 UTC 23 May 2022
Temperature: 15.0°C (59°F)
Dewpoint: 12.0°C (54°F) [RH = 82%]
Pressure (altimeter): 29.68 inches Hg (1005.0 mb)
Winds: from the W (280 degrees) at 15 MPH (13 knots; 6.7 m/s)
Visibility: 6 or more miles (10+ km)
Ceiling: at least 12,000 feet AGL
Clouds: few clouds at 900 feet AGL
Weather: no significant weather observed at this time

METAR text: EGJJ 231350Z 28012KT 250V310 9999 SCT008 15/12 Q1005
Conditions at: EGJJ (JERSEY AIRPORT , JE) observed 1350 UTC 23 May 2022
Temperature: 15.0°C (59°F)
Dewpoint: 12.0°C (54°F) [RH = 82%]
Pressure (altimeter): 29.68 inches Hg (1005.0 mb)
Winds: from the W (280 degrees) at 14 MPH (12 knots; 6.2 m/s)
Visibility: 6 or more miles (10+ km)
Ceiling: at least 12,000 feet AGL
Clouds: scattered clouds at 800 feet AGL
Weather: no significant weather observed at this time

Forecast for: EGJJ (JERSEY AIRPORT , JE)
Text: TAF EGJJ 231359Z 2315/2400 27012KT 9999 SCT010
Forecast period: 1500 UTC 23 May 2022 to 0000 UTC 24 May 2022
Forecast type: FROM: standard forecast or significant change
Winds: from the W (270 degrees) at 14 MPH (12 knots; 6.2 m/s)
Visibility: 6 or more miles (10+ km)
Ceiling: at least 12,000 feet AGL
Clouds: scattered clouds at 1000 feet AGL
Weather: no significant weather forecast for this period
Text: TEMPO 2315/2400 8000 SHRA BKN010TCU
Forecast period: 1500 UTC 23 May 2022 to 0000 UTC 24 May 2022
Forecast type: TEMPORARY: The following changes expected for less than half the time period
Visibility: 5 miles (8 km)
Ceiling: 1000 feet AGL
Clouds: broken clouds at 1000 feet AGL
Weather: SHRA  (rain showers)
Text: PROB40
Forecast period: 1900 to 2200 UTC 23 May 2022
Forecast type: TEMPORARY: The following changes expected for less than half the time period
Winds: from the W (270 degrees) at 20 MPH (17 knots; 8.7 m/s)
gusting to 31 MPH (27 knots; 13.9 m/s)
Visibility: 2.49 miles (4.01 km)
Ceiling: 600 feet AGL
Clouds: broken clouds at 600 feet AGL
Weather: +SHRA  (heavy rain showers)